createdAt,value
2023-05-16T00:03:32.908Z,14.45
2023-05-16T00:08:37.706Z,14.27
2023-05-16T00:13:45.682Z,13.38
2023-05-16T00:18:50.614Z,13.45
2023-05-16T00:23:55.679Z,13.25
2023-05-16T00:29:02.987Z,13.27
2023-05-16T00:34:07.894Z,13.93
2023-05-16T00:39:13.152Z,12.55
2023-05-16T00:44:20.540Z,12.60
2023-05-16T00:49:25.329Z,12.63
2023-05-16T00:54:30.153Z,13.32
2023-05-16T00:59:37.800Z,13.90
2023-05-16T01:04:42.853Z,13.85
2023-05-16T01:09:47.728Z,13.10
2023-05-16T01:14:59.715Z,12.40
2023-05-16T01:20:11.584Z,12.10
2023-05-16T01:25:24.230Z,11.25
2023-05-16T01:30:35.785Z,11.05
2023-05-16T01:35:43.269Z,11.30
2023-05-16T01:40:51.308Z,10.85
2023-05-16T01:46:01.011Z,11.18
2023-05-16T01:56:27.041Z,10.20
2023-05-16T02:01:34.742Z,10.80
2023-05-16T02:06:39.573Z,11.07
2023-05-16T02:11:44.239Z,10.50
2023-05-16T02:16:51.572Z,9.98
2023-05-16T02:21:57.057Z,9.57
2023-05-16T02:27:01.994Z,9.20
2023-05-16T02:32:09.540Z,9.48
2023-05-16T02:37:14.266Z,10.68
2023-05-16T02:42:19.064Z,9.52
2023-05-16T02:47:26.590Z,9.77
2023-05-16T02:52:31.326Z,9.50
2023-05-16T02:57:36.006Z,9.73
2023-05-16T03:02:43.799Z,9.88
2023-05-16T03:07:48.606Z,10.43
2023-05-16T03:12:53.624Z,10.48
2023-05-16T03:18:01.131Z,10.32
2023-05-16T03:23:07.937Z,9.98
2023-05-16T03:28:14.065Z,10.00
2023-05-16T03:33:24.004Z,9.65
2023-05-16T03:38:28.725Z,10.15
2023-05-16T03:43:33.458Z,8.85
2023-05-16T03:48:40.878Z,9.00
2023-05-16T03:53:45.585Z,8.45
2023-05-16T03:58:50.490Z,8.60
2023-05-16T04:03:57.767Z,8.65
2023-05-16T04:09:02.687Z,8.77
2023-05-16T04:14:07.786Z,8.90
2023-05-16T04:19:15.287Z,9.38
2023-05-16T04:24:20.080Z,8.65
2023-05-16T04:29:24.901Z,19.88
2023-05-16T04:34:34.235Z,9.10
2023-05-16T04:39:39.010Z,8.93
2023-05-16T04:44:44.343Z,7.82
2023-05-16T04:49:51.614Z,7.75
2023-05-16T04:54:56.367Z,8.50
2023-05-16T05:00:01.183Z,8.40
2023-05-16T05:05:08.898Z,8.35
2023-05-16T05:10:14.224Z,8.25
2023-05-16T05:15:19.639Z,6.88
2023-05-16T05:20:26.964Z,7.75
2023-05-16T05:25:31.672Z,6.15
2023-05-16T05:30:36.837Z,7.22
2023-05-16T05:35:44.200Z,6.70
2023-05-16T05:40:49.884Z,6.55
2023-05-16T05:45:55.313Z,6.30
2023-05-16T05:51:02.748Z,6.35
2023-05-16T05:56:10.047Z,7.07
2023-05-16T06:01:14.897Z,7.30
2023-05-16T06:06:22.329Z,6.53
2023-05-16T06:11:27.118Z,6.53
2023-05-16T06:16:32.002Z,6.53
2023-05-16T06:21:39.351Z,6.60
2023-05-16T06:26:46.467Z,6.50
2023-05-16T06:31:53.421Z,6.18
2023-05-16T06:37:01.142Z,7.55
2023-05-16T06:42:08.194Z,7.38
2023-05-16T06:47:16.230Z,6.80
2023-05-16T06:52:23.572Z,6.72
2023-05-16T06:57:29.723Z,5.82
2023-05-16T07:02:34.746Z,6.18
2023-05-16T07:07:42.256Z,6.30
2023-05-16T07:12:47.074Z,5.82
2023-05-16T07:17:52.034Z,5.50
2023-05-16T07:28:18.575Z,5.82
2023-05-16T07:33:23.351Z,5.88
2023-05-16T07:38:31.168Z,4.97
2023-05-16T07:43:37.158Z,4.95
2023-05-16T07:48:41.954Z,5.13
2023-05-16T07:53:49.422Z,5.78
2023-05-16T07:58:54.198Z,5.10
2023-05-16T08:03:59.073Z,5.35
2023-05-16T08:09:06.684Z,5.50
2023-05-16T08:14:11.596Z,7.57
2023-05-16T08:19:16.431Z,7.25
2023-05-16T08:24:23.990Z,8.63
2023-05-16T08:29:28.948Z,8.07
2023-05-16T08:34:34.528Z,6.10
2023-05-16T08:39:42.035Z,6.85
2023-05-16T08:44:46.759Z,6.15
2023-05-16T08:49:54.319Z,6.82
2023-05-16T08:55:11.080Z,6.00
2023-05-16T09:00:18.218Z,5.60
2023-05-16T09:05:23.087Z,5.10
2023-05-16T09:10:30.413Z,4.90
2023-05-16T09:15:36.334Z,5.15
2023-05-16T09:31:36.984Z,4.93
2023-05-16T09:36:43.793Z,4.93
2023-05-16T09:41:48.975Z,4.93
2023-05-16T09:46:56.827Z,4.75
2023-05-16T09:52:04.258Z,4.60
2023-05-16T09:57:09.200Z,5.10
2023-05-16T10:02:17.163Z,4.82
2023-05-16T10:07:22.591Z,5.85
2023-05-16T10:12:30.287Z,5.57
2023-05-16T10:17:41.888Z,4.35
2023-05-16T10:22:47.437Z,4.88
2023-05-16T10:27:52.774Z,6.53
2023-05-16T10:33:05.040Z,5.25
2023-05-16T10:54:15.378Z,6.45
2023-05-16T10:59:29.309Z,5.50
2023-05-16T11:04:48.796Z,6.38
2023-05-16T11:10:06.327Z,6.57
2023-05-16T11:15:25.148Z,6.60
2023-05-16T11:26:01.125Z,5.75
2023-05-16T11:31:07.092Z,5.75
2023-05-16T11:36:16.269Z,6.45
2023-05-16T11:41:25.359Z,5.60
2023-05-16T11:46:31.097Z,6.50
2023-05-16T11:51:36.034Z,6.93
2023-05-16T11:56:44.942Z,5.97
2023-05-16T12:01:50.793Z,7.18
2023-05-16T12:07:06.148Z,6.30
2023-05-16T12:12:14.456Z,5.70
2023-05-16T12:17:20.673Z,6.05
2023-05-16T12:22:32.001Z,6.50
2023-05-16T12:27:41.038Z,5.90
2023-05-16T12:32:48.093Z,6.60
2023-05-16T12:37:54.031Z,5.93
2023-05-16T12:43:02.930Z,5.05
2023-05-16T12:48:08.302Z,5.40
2023-05-16T12:53:15.966Z,6.65
2023-05-16T12:58:23.906Z,6.22
2023-05-16T13:03:28.943Z,5.88
2023-05-16T13:08:34.334Z,5.00
2023-05-16T13:13:41.811Z,5.88
2023-05-16T13:18:46.707Z,4.68
2023-05-16T13:23:51.520Z,4.68
2023-05-16T13:28:59.023Z,5.03
2023-05-16T13:34:04.608Z,4.47
2023-05-16T13:39:09.420Z,5.03
2023-05-16T13:44:16.991Z,5.20
2023-05-16T13:49:22.560Z,4.85
2023-05-16T13:54:30.391Z,4.70
2023-05-16T14:00:03.998Z,5.10
2023-05-16T14:05:02.518Z,5.22
2023-05-16T14:10:07.737Z,5.68
2023-05-16T14:15:15.325Z,5.75
2023-05-16T14:20:23.457Z,5.20
2023-05-16T14:25:28.664Z,5.55
2023-05-16T14:30:37.612Z,5.05
2023-05-16T14:35:43.960Z,4.97
2023-05-16T14:40:48.874Z,5.20
2023-05-16T14:45:56.356Z,5.60
2023-05-16T14:51:01.195Z,4.97
2023-05-16T14:56:06.448Z,4.18
2023-05-16T15:01:15.545Z,4.75
2023-05-16T15:11:24.946Z,4.35
2023-05-16T15:16:32.805Z,4.18
2023-05-16T15:32:41.984Z,4.00
2023-05-16T15:37:49.814Z,4.53
2023-05-16T15:42:54.745Z,5.45
2023-05-16T15:48:02.375Z,4.70
2023-05-16T15:53:07.185Z,5.03
2023-05-16T15:58:11.949Z,4.15
2023-05-16T16:03:19.594Z,4.43
2023-05-16T16:08:24.612Z,3.80
2023-05-16T16:13:29.445Z,4.65
2023-05-16T16:18:36.886Z,4.80
2023-05-16T16:23:42.369Z,4.63
2023-05-16T16:28:47.422Z,4.38
2023-05-16T16:33:55.210Z,4.97
2023-05-16T16:39:00.094Z,3.80
2023-05-16T16:44:04.913Z,4.45
2023-05-16T16:49:12.323Z,5.03
2023-05-16T16:54:17.278Z,5.03
2023-05-16T16:59:22.209Z,5.03
2023-05-16T17:04:29.874Z,5.22
2023-05-16T17:09:34.617Z,5.43
2023-05-16T17:14:39.484Z,5.45
2023-05-16T17:19:48.624Z,6.20
2023-05-16T17:24:53.509Z,6.40
2023-05-16T17:29:58.317Z,6.50
2023-05-16T17:35:06.339Z,6.70
2023-05-16T17:40:17.423Z,6.75
2023-05-16T17:45:25.521Z,7.00
2023-05-16T18:01:40.453Z,7.47
2023-05-16T18:06:56.826Z,8.68
2023-05-16T18:28:04.381Z,7.90
2023-05-16T18:33:09.351Z,8.82
2023-05-16T18:38:28.405Z,7.80
2023-05-16T18:59:40.172Z,11.40
2023-05-16T19:04:48.609Z,11.48
2023-05-16T20:03:38.259Z,10.40
2023-05-16T20:58:21.046Z,10.77
2023-05-16T21:03:25.953Z,9.77
2023-05-16T21:08:30.681Z,9.15
2023-05-16T21:13:38.208Z,10.75
2023-05-16T21:18:43.262Z,9.88
2023-05-16T21:23:48.212Z,10.98
2023-05-16T21:28:56.132Z,11.00
2023-05-16T21:34:01.095Z,11.23
2023-05-16T21:39:06.031Z,11.98
2023-05-16T21:44:17.411Z,12.27
2023-05-16T21:49:22.193Z,12.65
2023-05-16T21:54:27.371Z,13.48
2023-05-16T21:59:34.720Z,14.43
2023-05-16T22:04:39.490Z,14.32
2023-05-16T22:09:45.020Z,13.68
2023-05-16T22:14:52.467Z,13.60
2023-05-16T22:19:57.425Z,14.30
2023-05-16T22:25:02.230Z,14.88
2023-05-16T22:30:10.411Z,14.52
2023-05-16T22:35:15.326Z,12.68
2023-05-16T22:40:20.034Z,12.30
2023-05-16T22:45:27.698Z,12.80
2023-05-16T22:50:32.816Z,12.23
2023-05-16T22:55:37.594Z,12.27
2023-05-16T23:00:45.089Z,13.07
2023-05-16T23:05:49.986Z,12.80
2023-05-16T23:10:54.699Z,13.32
2023-05-16T23:16:02.086Z,13.77
2023-05-16T23:26:25.735Z,13.43
2023-05-16T23:31:33.127Z,13.85
2023-05-16T23:36:37.924Z,13.90
2023-05-16T23:41:42.773Z,13.43
2023-05-16T23:46:50.136Z,14.15
2023-05-16T23:51:57.382Z,12.75
2023-05-16T23:57:02.877Z,12.13
